createdAt,value
2022-10-26T00:00:23.352Z,97.57
2022-10-26T00:02:50.215Z,97.71
2022-10-26T00:05:17.061Z,98.11
2022-10-26T00:07:43.649Z,98.38
2022-10-26T00:10:10.161Z,97.69
2022-10-26T00:12:38.093Z,97.77
2022-10-26T00:15:05.569Z,97.47
2022-10-26T00:17:32.136Z,97.37
2022-10-26T00:19:58.749Z,97.72
2022-10-26T00:22:25.298Z,97.71
2022-10-26T00:24:51.821Z,98.04
2022-10-26T00:27:18.405Z,97.60
2022-10-26T00:29:46.269Z,97.64
2022-10-26T00:32:12.811Z,97.82
2022-10-26T00:34:39.363Z,97.53
2022-10-26T00:37:05.915Z,97.21
2022-10-26T00:39:32.463Z,97.08
2022-10-26T00:41:59.017Z,96.63
2022-10-26T00:44:59.258Z,96.62
2022-10-26T00:47:31.895Z,97.33
2022-10-26T00:50:02.398Z,97.13
2022-10-26T00:52:29.916Z,97.33
2022-10-26T00:54:56.492Z,97.40
2022-10-26T00:57:23.287Z,97.56
2022-10-26T00:59:54.131Z,97.79
2022-10-26T01:02:22.103Z,97.87
2022-10-26T01:04:49.681Z,97.88
2022-10-26T01:07:16.636Z,98.46
2022-10-26T01:09:43.233Z,98.19
2022-10-26T01:12:09.776Z,98.32
2022-10-26T01:14:36.457Z,98.40
2022-10-26T01:17:13.563Z,98.26
2022-10-26T01:20:26.929Z,98.60
2022-10-26T01:22:59.726Z,98.92
2022-10-26T01:25:57.234Z,99.33
2022-10-26T01:28:39.808Z,99.41
2022-10-26T01:31:14.836Z,99.56
2022-10-26T01:33:45.399Z,100.00
2022-10-26T01:36:16.433Z,100.00
2022-10-26T01:38:53.008Z,100.00
2022-10-26T01:41:25.934Z,100.00
2022-10-26T01:43:55.905Z,100.00
2022-10-26T01:46:26.008Z,100.00
2022-10-26T01:48:58.271Z,100.00
2022-10-26T01:51:26.477Z,100.00
2022-10-26T01:53:53.156Z,100.00
2022-10-26T01:56:23.293Z,100.00
2022-10-26T01:59:19.296Z,100.00
2022-10-26T02:02:13.028Z,99.60
2022-10-26T02:04:50.566Z,99.31
2022-10-26T02:07:25.144Z,99.44
2022-10-26T02:09:59.341Z,99.76
2022-10-26T02:12:33.779Z,99.84
2022-10-26T02:15:07.032Z,99.57
2022-10-26T02:17:45.042Z,99.90
2022-10-26T02:20:17.893Z,100.00
2022-10-26T02:22:47.872Z,100.00
2022-10-26T02:25:20.779Z,100.00
2022-10-26T02:27:51.631Z,100.00
2022-10-26T02:30:19.503Z,100.00
2022-10-26T02:32:52.094Z,99.72
2022-10-26T02:35:22.453Z,99.70
2022-10-26T02:37:52.330Z,100.00
2022-10-26T02:40:22.598Z,100.00
2022-10-26T02:42:51.796Z,100.00
2022-10-26T02:45:22.770Z,100.00
2022-10-26T02:47:51.544Z,100.00
2022-10-26T02:50:20.081Z,100.00
2022-10-26T02:52:55.192Z,100.00
2022-10-26T02:55:27.306Z,100.00
2022-10-26T02:57:59.132Z,100.00
2022-10-26T03:00:25.787Z,100.00
2022-10-26T03:02:56.000Z,100.00
2022-10-26T03:05:25.772Z,100.00
2022-10-26T03:07:52.702Z,100.00
2022-10-26T03:10:19.896Z,100.00
2022-10-26T03:12:46.794Z,100.00
2022-10-26T03:15:13.755Z,100.00
2022-10-26T03:17:40.292Z,100.00
2022-10-26T03:20:09.750Z,100.00
2022-10-26T03:22:36.534Z,100.00
2022-10-26T03:25:03.474Z,100.00
2022-10-26T03:27:30.038Z,100.00
2022-10-26T03:29:56.564Z,100.00
2022-10-26T03:32:23.132Z,100.00
2022-10-26T03:34:49.656Z,100.00
2022-10-26T03:37:17.576Z,100.00
2022-10-26T03:39:44.097Z,100.00
2022-10-26T03:42:10.648Z,100.00
2022-10-26T03:44:37.154Z,100.00
2022-10-26T03:47:03.692Z,100.00
2022-10-26T03:49:30.275Z,100.00
2022-10-26T03:51:56.827Z,100.00
2022-10-26T03:54:24.736Z,100.00
2022-10-26T03:56:54.221Z,100.00
2022-10-26T03:59:21.921Z,100.00
2022-10-26T04:01:51.500Z,100.00
2022-10-26T04:04:20.673Z,100.00
2022-10-26T04:09:18.747Z,100.00
2022-10-26T04:11:46.602Z,100.00
2022-10-26T04:14:13.129Z,100.00
2022-10-26T04:16:39.672Z,100.00
2022-10-26T04:19:06.400Z,100.00
2022-10-26T04:21:33.114Z,100.00
2022-10-26T04:23:59.701Z,100.00
2022-10-26T04:26:26.220Z,100.00
2022-10-26T04:28:54.223Z,100.00
2022-10-26T04:31:20.757Z,100.00
2022-10-26T04:33:47.316Z,100.00
2022-10-26T04:36:13.831Z,100.00
2022-10-26T04:38:40.346Z,100.00
2022-10-26T04:41:06.873Z,100.00
2022-10-26T04:43:33.406Z,100.00
2022-10-26T04:46:01.278Z,100.00
2022-10-26T04:48:27.837Z,100.00
2022-10-26T04:50:54.346Z,100.00
2022-10-26T04:53:20.918Z,100.00
2022-10-26T04:55:47.451Z,100.00
2022-10-26T04:58:14.058Z,100.00
2022-10-26T05:00:40.598Z,100.00
2022-10-26T05:03:09.614Z,100.00
2022-10-26T05:05:36.801Z,100.00
2022-10-26T05:08:04.020Z,100.00
2022-10-26T05:10:30.546Z,100.00
2022-10-26T05:12:58.840Z,100.00
2022-10-26T05:15:25.475Z,100.00
2022-10-26T05:17:55.725Z,100.00
2022-10-26T05:20:24.011Z,100.00
2022-10-26T05:22:52.718Z,100.00
2022-10-26T05:25:19.220Z,100.00
2022-10-26T05:27:45.742Z,100.00
2022-10-26T05:30:12.742Z,100.00
2022-10-26T05:32:39.273Z,100.00
2022-10-26T05:35:06.382Z,100.00
2022-10-26T05:37:34.398Z,100.00
2022-10-26T05:40:00.935Z,100.00
2022-10-26T05:42:27.505Z,100.00
2022-10-26T05:44:54.001Z,100.00
2022-10-26T05:47:20.549Z,100.00
2022-10-26T05:49:47.062Z,100.00
2022-10-26T05:52:13.647Z,100.00
2022-10-26T05:54:41.498Z,100.00
2022-10-26T05:57:11.728Z,100.00
2022-10-26T05:59:38.795Z,100.00
2022-10-26T06:02:15.753Z,100.00
2022-10-26T06:04:44.273Z,100.00
2022-10-26T06:07:13.184Z,100.00
2022-10-26T06:09:42.098Z,100.00
2022-10-26T06:12:10.712Z,100.00
2022-10-26T06:14:39.698Z,100.00
2022-10-26T06:17:25.965Z,100.00
2022-10-26T06:20:05.633Z,100.00
2022-10-26T06:22:46.298Z,100.00
2022-10-26T06:25:27.256Z,100.00
2022-10-26T06:28:03.348Z,100.00
2022-10-26T06:30:29.871Z,100.00
2022-10-26T06:33:05.772Z,100.00
2022-10-26T06:35:49.916Z,100.00
2022-10-26T06:38:20.221Z,100.00
2022-10-26T06:40:51.912Z,100.00
2022-10-26T06:43:23.969Z,100.00
2022-10-26T06:45:56.623Z,100.00
2022-10-26T06:48:27.963Z,100.00
2022-10-26T06:50:55.195Z,100.00
2022-10-26T06:53:27.373Z,100.00
2022-10-26T06:55:58.877Z,100.00
2022-10-26T06:58:29.049Z,100.00
2022-10-26T07:00:56.724Z,100.00
2022-10-26T07:03:23.283Z,100.00
2022-10-26T07:05:50.107Z,100.00
2022-10-26T07:08:16.697Z,100.00
2022-10-26T07:10:43.217Z,100.00
2022-10-26T07:13:11.254Z,100.00
2022-10-26T07:15:38.658Z,100.00
2022-10-26T07:18:06.693Z,100.00
2022-10-26T07:20:36.664Z,100.00
2022-10-26T07:23:03.930Z,100.00
2022-10-26T07:25:30.472Z,100.00
2022-10-26T07:27:58.031Z,100.00
2022-10-26T07:30:26.041Z,99.75
2022-10-26T07:32:59.196Z,98.84
2022-10-26T07:35:25.766Z,99.30
2022-10-26T07:37:56.637Z,98.99
2022-10-26T07:40:23.189Z,98.18
2022-10-26T07:42:50.041Z,98.61
2022-10-26T07:45:17.114Z,97.80
2022-10-26T07:47:45.180Z,97.48
2022-10-26T07:50:12.095Z,97.15
2022-10-26T07:52:38.800Z,96.89
2022-10-26T07:55:06.287Z,96.22
2022-10-26T07:57:34.108Z,95.57
2022-10-26T08:00:00.813Z,95.12
2022-10-26T08:02:27.586Z,93.84
2022-10-26T08:04:55.472Z,94.21
2022-10-26T08:07:22.016Z,93.30
2022-10-26T08:09:48.610Z,93.05
2022-10-26T08:12:15.118Z,91.79
2022-10-26T08:14:41.981Z,91.38
2022-10-26T08:17:08.880Z,90.12
2022-10-26T08:19:35.757Z,90.48
2022-10-26T08:22:03.950Z,90.24
2022-10-26T08:24:30.563Z,89.45
2022-10-26T08:26:57.114Z,88.51
2022-10-26T08:29:23.703Z,87.95
2022-10-26T08:31:50.284Z,88.45
2022-10-26T08:34:16.847Z,89.18
2022-10-26T08:36:43.494Z,89.28
2022-10-26T08:39:11.421Z,88.81
2022-10-26T08:41:42.391Z,89.16
2022-10-26T08:44:22.539Z,89.59
2022-10-26T08:46:53.030Z,89.23
2022-10-26T08:49:24.063Z,89.21
2022-10-26T08:51:54.223Z,89.93
2022-10-26T08:54:30.241Z,89.90
2022-10-26T08:57:01.304Z,89.98
2022-10-26T08:59:34.530Z,90.28
2022-10-26T09:02:01.164Z,90.30
2022-10-26T09:04:30.130Z,90.53
2022-10-26T09:07:04.498Z,90.26
2022-10-26T09:09:45.187Z,90.47
2022-10-26T09:12:18.485Z,90.05
2022-10-26T09:14:57.876Z,90.35
2022-10-26T09:17:37.634Z,89.42
2022-10-26T09:20:24.338Z,89.54
2022-10-26T09:22:57.985Z,89.21
2022-10-26T09:25:29.597Z,89.19
2022-10-26T09:27:59.608Z,89.46
2022-10-26T09:30:26.568Z,89.18
2022-10-26T09:32:58.861Z,87.63
2022-10-26T09:38:08.212Z,86.91
2022-10-26T09:40:41.564Z,87.59
2022-10-26T09:43:14.097Z,88.12
2022-10-26T09:45:45.245Z,87.75
2022-10-26T09:48:17.611Z,87.50
2022-10-26T09:50:48.044Z,88.17
2022-10-26T09:53:14.587Z,88.08
2022-10-26T09:55:45.679Z,87.92
2022-10-26T09:58:16.055Z,87.64
2022-10-26T10:00:44.595Z,87.21
2022-10-26T10:03:19.729Z,86.50
2022-10-26T10:05:51.358Z,86.76
2022-10-26T10:08:21.161Z,85.73
2022-10-26T10:10:57.747Z,86.14
2022-10-26T10:13:26.819Z,85.81
2022-10-26T10:15:55.167Z,85.77
2022-10-26T10:18:23.404Z,85.17
2022-10-26T10:20:53.052Z,86.68
2022-10-26T10:23:29.710Z,86.92
2022-10-26T10:26:06.985Z,87.14
2022-10-26T10:28:34.085Z,88.51
2022-10-26T10:31:02.753Z,88.62
2022-10-26T10:33:37.782Z,88.22
2022-10-26T10:36:08.970Z,88.55
2022-10-26T10:38:43.996Z,89.31
2022-10-26T10:41:25.030Z,88.59
2022-10-26T10:43:54.828Z,86.53
2022-10-26T10:46:24.902Z,86.83
2022-10-26T10:48:55.814Z,86.73
2022-10-26T10:51:25.514Z,85.74
2022-10-26T10:53:53.845Z,84.70
2022-10-26T10:56:31.902Z,83.10
2022-10-26T10:59:10.797Z,84.05
2022-10-26T11:01:40.105Z,82.58
2022-10-26T11:04:27.740Z,81.27
2022-10-26T11:06:59.951Z,80.13
2022-10-26T11:09:30.313Z,82.09
2022-10-26T11:12:02.929Z,82.48
2022-10-26T11:14:35.075Z,81.57
2022-10-26T11:17:05.878Z,81.36
2022-10-26T11:19:37.605Z,81.57
2022-10-26T11:22:09.669Z,81.42
2022-10-26T11:24:42.022Z,82.26
2022-10-26T11:27:15.846Z,81.98
2022-10-26T11:29:48.763Z,81.38
2022-10-26T11:32:21.307Z,83.80
2022-10-26T11:34:54.953Z,84.04
2022-10-26T11:37:27.511Z,81.50
2022-10-26T11:40:02.793Z,82.76
2022-10-26T11:42:37.356Z,82.79
2022-10-26T11:45:13.161Z,81.47
2022-10-26T11:47:46.673Z,81.04
2022-10-26T11:50:19.798Z,82.26
2022-10-26T11:52:51.650Z,84.03
2022-10-26T11:55:19.667Z,82.81
2022-10-26T11:57:48.298Z,82.33
2022-10-26T12:00:17.409Z,82.80
2022-10-26T12:02:48.841Z,82.48
2022-10-26T12:05:22.662Z,82.46
2022-10-26T12:07:52.935Z,82.03
2022-10-26T12:10:26.023Z,81.18
2022-10-26T12:13:01.601Z,81.26
2022-10-26T12:15:39.989Z,81.25
2022-10-26T12:18:20.267Z,81.88
2022-10-26T12:20:59.887Z,81.86
2022-10-26T12:23:40.312Z,82.53
2022-10-26T12:26:47.043Z,82.95
2022-10-26T12:29:42.537Z,82.53
2022-10-26T12:32:54.869Z,83.22
2022-10-26T12:35:37.124Z,83.83
2022-10-26T12:38:47.949Z,83.68
2022-10-26T12:41:28.681Z,83.09
2022-10-26T12:43:57.181Z,83.10
2022-10-26T12:46:43.491Z,83.34
2022-10-26T12:49:39.775Z,83.11
2022-10-26T12:52:19.737Z,83.29
2022-10-26T12:54:58.892Z,83.67
2022-10-26T12:57:31.813Z,83.68
2022-10-26T13:00:01.647Z,82.90
2022-10-26T13:02:46.946Z,83.44
2022-10-26T13:05:58.259Z,84.00
2022-10-26T13:08:25.360Z,82.68
2022-10-26T13:11:02.636Z,82.15
2022-10-26T13:13:31.174Z,81.31
2022-10-26T13:15:59.568Z,83.17
2022-10-26T13:18:28.194Z,82.75
2022-10-26T13:21:05.411Z,82.96
2022-10-26T13:23:34.150Z,82.25
2022-10-26T13:26:07.713Z,83.89
2022-10-26T13:28:45.727Z,84.33
2022-10-26T13:31:39.583Z,84.15
2022-10-26T13:36:51.837Z,83.53
2022-10-26T13:39:20.683Z,83.71
2022-10-26T13:41:50.989Z,84.31
2022-10-26T13:44:25.205Z,84.27
2022-10-26T13:46:58.270Z,84.49
2022-10-26T13:49:31.993Z,84.86
2022-10-26T13:52:02.736Z,85.43
2022-10-26T13:54:35.377Z,85.52
2022-10-26T13:57:11.258Z,85.14
2022-10-26T13:59:42.155Z,86.83
2022-10-26T14:02:18.506Z,87.11
2022-10-26T14:04:53.300Z,86.78
2022-10-26T14:07:23.519Z,86.18
2022-10-26T14:09:52.534Z,88.14
2022-10-26T14:12:19.358Z,87.13
2022-10-26T14:14:46.771Z,87.43
2022-10-26T14:17:19.347Z,87.97
2022-10-26T14:19:46.472Z,87.55
2022-10-26T14:22:23.067Z,88.25
2022-10-26T14:27:30.943Z,88.48
2022-10-26T14:30:21.085Z,88.14
2022-10-26T14:32:44.259Z,87.31
2022-10-26T14:35:12.515Z,86.98
2022-10-26T14:37:45.543Z,87.59
2022-10-26T14:40:17.163Z,87.31
2022-10-26T14:42:46.258Z,86.95
2022-10-26T14:45:43.359Z,87.25
2022-10-26T14:48:22.768Z,87.60
2022-10-26T14:50:59.800Z,87.85
2022-10-26T14:53:34.535Z,88.18
2022-10-26T14:56:01.331Z,88.69
2022-10-26T15:01:29.272Z,87.63
2022-10-26T15:04:00.314Z,87.68
2022-10-26T15:06:44.159Z,87.70
2022-10-26T15:09:37.442Z,87.17
2022-10-26T15:12:05.055Z,86.97
2022-10-26T15:14:32.108Z,87.04
2022-10-26T15:17:00.289Z,87.38
2022-10-26T15:19:27.761Z,87.79
2022-10-26T15:21:54.504Z,87.91
2022-10-26T15:24:38.461Z,88.50
2022-10-26T15:27:15.026Z,87.64
2022-10-26T15:29:43.917Z,88.20
2022-10-26T15:32:31.319Z,88.37
2022-10-26T15:35:26.884Z,88.71
2022-10-26T15:37:55.005Z,88.50
2022-10-26T15:42:58.400Z,89.87
2022-10-26T15:45:27.002Z,89.50
2022-10-26T15:47:56.435Z,89.72
2022-10-26T15:50:25.435Z,89.80
2022-10-26T15:52:59.149Z,89.84
2022-10-26T15:55:27.360Z,89.91
2022-10-26T15:57:54.003Z,90.60
2022-10-26T16:00:20.865Z,91.17
2022-10-26T16:02:47.720Z,91.56
2022-10-26T16:05:16.269Z,91.61
2022-10-26T16:07:47.009Z,91.37
2022-10-26T16:10:18.420Z,91.23
2022-10-26T16:12:46.404Z,92.27
2022-10-26T16:15:17.280Z,92.41
2022-10-26T16:17:44.031Z,93.16
2022-10-26T16:20:14.612Z,93.84
2022-10-26T16:22:41.550Z,94.58
2022-10-26T16:25:08.688Z,94.94
2022-10-26T16:27:35.296Z,95.07
2022-10-26T16:30:04.634Z,95.33
2022-10-26T16:32:31.185Z,95.67
2022-10-26T16:34:58.159Z,96.38
2022-10-26T16:37:24.769Z,97.12
2022-10-26T16:39:51.301Z,97.90
2022-10-26T16:42:18.195Z,97.57
2022-10-26T16:44:44.736Z,97.22
2022-10-26T16:47:13.101Z,97.00
2022-10-26T16:49:39.716Z,97.41
2022-10-26T16:52:06.499Z,97.29
2022-10-26T16:54:33.107Z,97.49
2022-10-26T16:57:00.084Z,97.44
2022-10-26T16:59:26.651Z,97.69
2022-10-26T17:01:53.710Z,97.97
2022-10-26T17:04:21.941Z,98.17
2022-10-26T17:06:48.507Z,98.99
2022-10-26T17:09:15.466Z,98.64
2022-10-26T17:11:42.022Z,98.54
2022-10-26T17:14:08.746Z,98.08
2022-10-26T17:16:35.258Z,98.08
2022-10-26T17:19:02.136Z,98.17
2022-10-26T17:21:32.781Z,98.17
2022-10-26T17:23:59.476Z,98.46
2022-10-26T17:26:26.249Z,98.54
2022-10-26T17:28:53.631Z,98.35
2022-10-26T17:31:20.762Z,99.26
2022-10-26T17:33:47.329Z,99.66
2022-10-26T17:36:14.351Z,99.45
2022-10-26T17:38:43.203Z,99.20
2022-10-26T17:41:12.025Z,99.35
2022-10-26T17:43:40.515Z,99.15
2022-10-26T17:46:09.806Z,99.35
2022-10-26T17:48:36.734Z,99.88
2022-10-26T17:51:05.519Z,99.96
2022-10-26T17:53:32.119Z,99.80
2022-10-26T17:56:04.066Z,99.93
2022-10-26T17:58:30.595Z,99.54
2022-10-26T18:01:01.693Z,100.00
2022-10-26T18:03:28.734Z,99.78
2022-10-26T18:05:55.858Z,100.00
2022-10-26T18:08:22.528Z,100.00
2022-10-26T18:10:50.440Z,100.00
2022-10-26T18:13:19.254Z,99.68
2022-10-26T18:15:46.280Z,99.87
2022-10-26T18:18:13.156Z,100.00
2022-10-26T18:20:40.251Z,99.80
2022-10-26T18:23:07.027Z,100.00
2022-10-26T18:25:33.826Z,100.00
2022-10-26T18:28:00.513Z,99.97
2022-10-26T18:30:28.574Z,99.98
2022-10-26T18:32:55.582Z,100.00
2022-10-26T18:35:22.292Z,100.00
2022-10-26T18:37:49.139Z,100.00
2022-10-26T18:40:16.300Z,99.98
2022-10-26T18:42:42.994Z,100.00
2022-10-26T18:45:10.428Z,99.95
2022-10-26T18:47:38.416Z,99.92
2022-10-26T18:50:06.056Z,99.83
2022-10-26T18:52:32.639Z,100.00
2022-10-26T18:54:59.581Z,100.00
2022-10-26T18:57:26.185Z,100.00
2022-10-26T18:59:54.895Z,100.00
2022-10-26T19:02:22.002Z,100.00
2022-10-26T19:04:50.436Z,100.00
2022-10-26T19:07:17.082Z,100.00
2022-10-26T19:09:43.794Z,100.00
2022-10-26T19:12:10.360Z,100.00
2022-10-26T19:14:37.295Z,100.00
2022-10-26T19:17:03.938Z,100.00
2022-10-26T19:19:30.981Z,100.00
2022-10-26T19:21:59.048Z,100.00
2022-10-26T19:24:26.023Z,100.00
2022-10-26T19:26:52.725Z,100.00
2022-10-26T19:29:20.280Z,100.00
2022-10-26T19:31:50.192Z,100.00
2022-10-26T19:34:17.291Z,100.00
2022-10-26T19:36:44.843Z,100.00
2022-10-26T19:39:14.373Z,100.00
2022-10-26T19:41:41.057Z,100.00
2022-10-26T19:44:09.509Z,100.00
2022-10-26T19:46:36.633Z,100.00
2022-10-26T19:49:03.682Z,100.00
2022-10-26T19:51:31.877Z,100.00
2022-10-26T19:54:02.143Z,100.00
2022-10-26T19:56:31.890Z,100.00
2022-10-26T19:58:58.671Z,100.00
2022-10-26T20:01:25.411Z,100.00
2022-10-26T20:03:52.329Z,100.00
2022-10-26T20:06:19.265Z,100.00
2022-10-26T20:08:47.742Z,100.00
2022-10-26T20:11:15.920Z,100.00
2022-10-26T20:13:45.242Z,100.00
2022-10-26T20:16:12.399Z,100.00
2022-10-26T20:18:42.534Z,100.00
2022-10-26T20:21:13.329Z,100.00
2022-10-26T20:23:40.428Z,100.00
2022-10-26T20:28:38.512Z,100.00
2022-10-26T20:31:06.800Z,100.00
2022-10-26T20:33:33.394Z,100.00
2022-10-26T20:36:00.535Z,99.91
2022-10-26T20:38:27.811Z,100.00
2022-10-26T20:40:56.840Z,100.00
2022-10-26T20:43:24.293Z,100.00
2022-10-26T20:45:51.779Z,99.62
2022-10-26T20:48:20.527Z,99.93
2022-10-26T20:50:53.100Z,99.80
2022-10-26T20:53:27.704Z,100.00
2022-10-26T20:55:57.004Z,99.68
2022-10-26T20:58:35.897Z,100.00
2022-10-26T21:01:04.953Z,100.00
2022-10-26T21:03:33.276Z,100.00
2022-10-26T21:06:00.105Z,99.67
2022-10-26T21:08:27.063Z,99.54
2022-10-26T21:10:53.672Z,99.51
2022-10-26T21:13:20.726Z,99.81
2022-10-26T21:15:47.321Z,99.95
2022-10-26T21:18:14.285Z,99.47
2022-10-26T21:20:42.264Z,99.51
2022-10-26T21:23:08.841Z,99.55
2022-10-26T21:25:35.805Z,99.60
2022-10-26T21:28:02.812Z,99.61
2022-10-26T21:30:30.170Z,99.37
2022-10-26T21:35:28.465Z,98.36
2022-10-26T21:37:56.501Z,98.47
2022-10-26T21:40:23.495Z,98.99
2022-10-26T21:42:51.190Z,98.86
2022-10-26T21:45:18.451Z,98.57
2022-10-26T21:47:45.121Z,98.53
2022-10-26T21:50:11.918Z,99.08
2022-10-26T21:52:38.502Z,98.72
2022-10-26T21:55:07.774Z,98.69
2022-10-26T21:57:34.814Z,98.87
2022-10-26T22:00:01.669Z,97.92
2022-10-26T22:02:28.754Z,98.01
2022-10-26T22:04:55.375Z,97.68
2022-10-26T22:07:22.250Z,97.66
2022-10-26T22:10:00.718Z,98.11
2022-10-26T22:12:37.237Z,97.91
2022-10-26T22:15:04.482Z,97.99
2022-10-26T22:17:31.459Z,97.87
2022-10-26T22:19:58.044Z,97.47
2022-10-26T22:22:25.164Z,97.47
2022-10-26T22:24:51.781Z,97.50
2022-10-26T22:27:18.696Z,98.04
2022-10-26T22:29:46.674Z,98.46
2022-10-26T22:32:13.753Z,98.89
2022-10-26T22:34:40.410Z,99.05
2022-10-26T22:37:07.328Z,99.56
2022-10-26T22:39:33.934Z,99.63
2022-10-26T22:42:00.889Z,99.03
2022-10-26T22:44:27.477Z,98.43
2022-10-26T22:46:55.603Z,98.62
2022-10-26T22:49:22.197Z,98.85
2022-10-26T22:51:49.265Z,99.54
2022-10-26T22:54:15.887Z,99.64
2022-10-26T22:56:43.130Z,99.54
2022-10-26T22:59:09.728Z,99.16
2022-10-26T23:01:39.138Z,99.08
2022-10-26T23:04:07.694Z,98.61
2022-10-26T23:06:34.639Z,98.43
2022-10-26T23:09:01.198Z,98.47
2022-10-26T23:11:29.422Z,98.48
2022-10-26T23:13:58.006Z,98.86
2022-10-26T23:16:25.374Z,98.51
2022-10-26T23:18:52.514Z,98.83
2022-10-26T23:21:21.885Z,99.01
2022-10-26T23:23:49.011Z,97.73
2022-10-26T23:26:17.569Z,97.55
2022-10-26T23:28:45.092Z,97.52
2022-10-26T23:31:16.395Z,97.79
2022-10-26T23:33:43.585Z,97.55
2022-10-26T23:36:10.518Z,97.99
2022-10-26T23:38:38.908Z,97.55
2022-10-26T23:41:08.198Z,98.27
2022-10-26T23:43:37.212Z,98.70
2022-10-26T23:46:04.178Z,98.84
2022-10-26T23:48:30.932Z,98.74
2022-10-26T23:50:58.027Z,98.29
2022-10-26T23:53:25.867Z,97.70
2022-10-26T23:55:53.904Z,97.90
2022-10-26T23:58:20.660Z,97.37
